createdAt,value
2023-05-17T00:00:26.480Z,82.16
2023-05-17T00:02:53.190Z,82.09
2023-05-17T00:05:19.909Z,81.92
2023-05-17T00:07:47.433Z,81.96
2023-05-17T00:10:14.138Z,82.00
2023-05-17T00:12:40.839Z,82.01
2023-05-17T00:15:07.807Z,82.26
2023-05-17T00:17:34.706Z,82.26
2023-05-17T00:20:01.651Z,82.24
2023-05-17T00:22:28.353Z,82.08
2023-05-17T00:24:55.266Z,82.11
2023-05-17T00:27:24.533Z,82.37
2023-05-17T00:29:51.598Z,82.51
2023-05-17T00:32:18.291Z,82.60
2023-05-17T00:34:45.017Z,82.86
2023-05-17T00:37:11.778Z,83.00
2023-05-17T00:39:38.495Z,82.90
2023-05-17T00:42:05.401Z,82.92
2023-05-17T00:44:32.119Z,83.00
2023-05-17T00:47:03.100Z,82.92
2023-05-17T00:49:29.869Z,82.67
2023-05-17T00:51:56.706Z,82.51
2023-05-17T00:54:23.369Z,82.56
2023-05-17T00:56:50.054Z,82.54
2023-05-17T00:59:16.738Z,82.83
2023-05-17T01:01:43.548Z,82.77
2023-05-17T01:04:10.733Z,82.59
2023-05-17T01:06:37.509Z,82.74
2023-05-17T01:09:05.221Z,82.66
2023-05-17T01:12:01.192Z,82.59
2023-05-17T01:14:46.173Z,82.86
2023-05-17T01:17:17.065Z,82.99
2023-05-17T01:19:59.022Z,83.33
2023-05-17T01:22:25.795Z,83.63
2023-05-17T01:25:12.134Z,84.06
2023-05-17T01:27:41.124Z,84.32
2023-05-17T01:30:08.633Z,84.39
2023-05-17T01:32:35.487Z,84.15
2023-05-17T01:35:05.238Z,84.06
2023-05-17T01:37:31.919Z,84.02
2023-05-17T01:39:58.576Z,83.81
2023-05-17T01:42:32.519Z,83.62
2023-05-17T01:45:10.373Z,83.51
2023-05-17T01:47:42.213Z,83.49
2023-05-17T01:50:08.962Z,83.22
2023-05-17T01:52:37.883Z,83.54
2023-05-17T01:55:35.452Z,83.74
2023-05-17T01:58:02.197Z,83.83
2023-05-17T02:00:28.902Z,83.84
2023-05-17T02:02:55.658Z,83.81
2023-05-17T02:05:22.387Z,83.86
2023-05-17T02:07:49.061Z,84.10
2023-05-17T02:10:15.863Z,84.22
2023-05-17T02:12:42.889Z,84.20
2023-05-17T02:15:12.089Z,83.88
2023-05-17T02:17:40.454Z,83.86
2023-05-17T02:20:07.706Z,83.90
2023-05-17T02:22:34.395Z,84.10
2023-05-17T02:25:01.277Z,84.14
2023-05-17T02:27:28.024Z,84.08
2023-05-17T02:29:54.790Z,84.06
2023-05-17T02:32:21.472Z,84.14
2023-05-17T02:34:48.306Z,84.05
2023-05-17T02:37:15.024Z,84.09
2023-05-17T02:39:41.732Z,84.12
2023-05-17T02:42:08.430Z,84.33
2023-05-17T02:44:35.116Z,84.28
2023-05-17T02:47:01.836Z,84.17
2023-05-17T02:49:28.563Z,83.93
2023-05-17T02:51:55.299Z,83.87
2023-05-17T02:54:22.195Z,83.86
2023-05-17T02:56:49.179Z,83.85
2023-05-17T02:59:15.924Z,83.82
2023-05-17T03:01:42.662Z,83.56
2023-05-17T03:04:09.445Z,83.27
2023-05-17T03:06:36.224Z,83.34
2023-05-17T03:09:02.989Z,83.50
2023-05-17T03:11:29.667Z,83.61
2023-05-17T03:13:56.385Z,83.74
2023-05-17T03:16:23.105Z,83.90
2023-05-17T03:18:49.962Z,83.75
2023-05-17T03:21:16.783Z,83.38
2023-05-17T03:23:43.447Z,83.40
2023-05-17T03:26:10.097Z,83.30
2023-05-17T03:28:36.853Z,83.43
2023-05-17T03:31:03.602Z,83.88
2023-05-17T03:33:30.444Z,84.14
2023-05-17T03:35:57.225Z,84.21
2023-05-17T03:38:23.893Z,84.31
2023-05-17T03:40:52.029Z,84.32
2023-05-17T03:43:18.778Z,84.41
2023-05-17T03:45:45.649Z,84.17
2023-05-17T03:48:12.393Z,84.13
2023-05-17T03:50:41.071Z,83.93
2023-05-17T03:53:07.933Z,83.84
2023-05-17T03:55:34.696Z,83.88
2023-05-17T03:58:01.424Z,84.05
2023-05-17T04:00:28.109Z,84.20
2023-05-17T04:02:54.818Z,84.24
2023-05-17T04:05:21.746Z,84.18
2023-05-17T04:07:48.583Z,84.42
2023-05-17T04:10:15.366Z,84.53
2023-05-17T04:12:42.009Z,84.75
2023-05-17T04:15:09.137Z,84.30
2023-05-17T04:17:36.371Z,84.15
2023-05-17T04:20:06.446Z,84.23
2023-05-17T04:22:33.670Z,84.48
2023-05-17T04:25:00.512Z,84.70
2023-05-17T04:27:27.312Z,84.88
2023-05-17T04:29:54.008Z,84.97
2023-05-17T04:32:21.483Z,85.00
2023-05-17T04:34:48.204Z,84.82
2023-05-17T04:37:15.994Z,84.86
2023-05-17T04:39:42.809Z,85.00
2023-05-17T04:42:09.926Z,85.21
2023-05-17T04:44:36.616Z,85.42
2023-05-17T04:47:04.001Z,85.77
2023-05-17T04:49:30.749Z,85.45
2023-05-17T04:51:57.397Z,85.22
2023-05-17T04:54:25.008Z,85.04
2023-05-17T04:56:51.729Z,85.19
2023-05-17T04:59:18.421Z,84.99
2023-05-17T05:01:45.162Z,85.06
2023-05-17T05:04:11.985Z,85.16
2023-05-17T05:06:38.909Z,85.54
2023-05-17T05:09:05.730Z,85.86
2023-05-17T05:11:32.466Z,85.98
2023-05-17T05:13:59.165Z,86.03
2023-05-17T05:16:26.265Z,86.16
2023-05-17T05:18:53.141Z,86.24
2023-05-17T05:21:20.012Z,86.22
2023-05-17T05:23:46.724Z,86.50
2023-05-17T05:26:13.390Z,86.30
2023-05-17T05:28:40.209Z,86.18
2023-05-17T05:31:06.897Z,86.36
2023-05-17T05:33:33.880Z,86.56
2023-05-17T05:36:00.759Z,86.51
2023-05-17T05:38:27.490Z,86.61
2023-05-17T05:40:54.205Z,86.54
2023-05-17T05:43:20.948Z,86.44
2023-05-17T05:45:47.729Z,86.29
2023-05-17T05:48:14.660Z,86.13
2023-05-17T05:50:42.944Z,86.67
2023-05-17T05:53:18.905Z,86.76
2023-05-17T05:55:46.575Z,85.53
2023-05-17T05:58:13.289Z,85.23
2023-05-17T06:00:40.057Z,85.40
2023-05-17T06:03:06.804Z,84.59
2023-05-17T06:05:33.741Z,83.49
2023-05-17T06:08:00.524Z,84.21
2023-05-17T06:10:27.496Z,84.17
2023-05-17T06:12:54.435Z,83.76
2023-05-17T06:15:21.206Z,83.65
2023-05-17T06:17:47.947Z,82.87
2023-05-17T06:20:16.451Z,82.86
2023-05-17T06:22:43.856Z,81.86
2023-05-17T06:25:11.480Z,81.89
2023-05-17T06:27:38.210Z,81.91
2023-05-17T06:30:07.316Z,82.37
2023-05-17T06:32:34.369Z,81.91
2023-05-17T06:35:01.682Z,81.23
2023-05-17T06:37:28.468Z,81.33
2023-05-17T06:40:10.085Z,81.58
2023-05-17T06:42:42.109Z,81.54
2023-05-17T06:45:09.309Z,82.66
2023-05-17T06:47:36.108Z,82.05
2023-05-17T06:50:03.191Z,82.17
2023-05-17T06:52:29.977Z,81.59
2023-05-17T06:54:56.635Z,81.22
2023-05-17T06:57:24.400Z,80.90
2023-05-17T06:59:52.333Z,81.59
2023-05-17T07:02:19.573Z,81.87
2023-05-17T07:04:46.296Z,81.87
2023-05-17T07:07:13.007Z,81.27
2023-05-17T07:09:40.081Z,80.14
2023-05-17T07:12:07.084Z,79.49
2023-05-17T07:14:33.820Z,79.90
2023-05-17T07:17:00.689Z,78.34
2023-05-17T07:19:27.571Z,78.49
2023-05-17T07:21:54.377Z,78.49
2023-05-17T07:24:21.097Z,79.92
2023-05-17T07:26:48.482Z,79.01
2023-05-17T07:29:16.107Z,78.70
2023-05-17T07:31:42.897Z,78.66
2023-05-17T07:34:09.636Z,78.30
2023-05-17T07:36:36.415Z,77.73
2023-05-17T07:39:05.299Z,77.75
2023-05-17T07:41:34.286Z,78.19
2023-05-17T07:44:01.355Z,78.02
2023-05-17T07:46:28.027Z,77.29
2023-05-17T07:48:58.292Z,77.76
2023-05-17T07:51:25.670Z,76.80
2023-05-17T07:53:52.489Z,77.33
2023-05-17T07:56:19.240Z,75.55
2023-05-17T07:58:45.930Z,75.97
2023-05-17T08:01:12.605Z,75.48
2023-05-17T08:03:39.818Z,75.50
2023-05-17T08:06:06.732Z,75.52
2023-05-17T08:08:33.524Z,75.46
2023-05-17T08:11:00.253Z,75.98
2023-05-17T08:13:26.959Z,75.74
2023-05-17T08:16:01.678Z,75.89
2023-05-17T08:18:37.484Z,75.56
2023-05-17T08:21:04.838Z,76.00
2023-05-17T08:23:31.593Z,76.27
2023-05-17T08:25:59.277Z,76.40
2023-05-17T08:28:26.002Z,75.61
2023-05-17T08:30:52.659Z,77.19
2023-05-17T08:33:20.900Z,76.71
2023-05-17T08:35:47.871Z,76.26
2023-05-17T08:38:14.554Z,76.06
2023-05-17T08:40:41.427Z,76.85
2023-05-17T08:43:09.064Z,77.34
2023-05-17T08:45:36.884Z,78.19
2023-05-17T08:48:03.697Z,77.87
2023-05-17T08:50:30.703Z,78.59
2023-05-17T08:52:58.575Z,79.49
2023-05-17T08:55:26.450Z,79.72
2023-05-17T08:57:53.196Z,79.74
2023-05-17T09:00:20.515Z,79.09
2023-05-17T09:02:47.400Z,78.94
2023-05-17T09:05:15.143Z,79.05
2023-05-17T09:07:42.999Z,80.06
2023-05-17T09:10:10.139Z,79.90
2023-05-17T09:12:36.842Z,79.67
2023-05-17T09:15:17.392Z,79.45
2023-05-17T09:17:44.059Z,79.46
2023-05-17T09:20:11.077Z,80.43
2023-05-17T09:22:38.525Z,80.36
2023-05-17T09:25:05.846Z,80.14
2023-05-17T09:27:32.704Z,79.44
2023-05-17T09:29:59.413Z,79.01
2023-05-17T09:32:27.272Z,78.73
2023-05-17T09:34:56.299Z,79.98
2023-05-17T09:37:23.244Z,79.71
2023-05-17T09:39:49.999Z,79.72
2023-05-17T09:42:17.798Z,76.60
2023-05-17T09:44:57.712Z,77.47
2023-05-17T09:47:28.739Z,78.88
2023-05-17T09:50:00.859Z,77.83
2023-05-17T09:52:35.228Z,75.79
2023-05-17T09:55:01.762Z,77.16
2023-05-17T09:57:29.503Z,78.13
2023-05-17T09:59:57.536Z,78.19
2023-05-17T10:02:32.876Z,76.39
2023-05-17T10:04:59.665Z,76.80
2023-05-17T10:07:26.940Z,77.94
2023-05-17T10:09:54.755Z,79.76
2023-05-17T10:12:27.612Z,80.52
2023-05-17T10:14:56.301Z,81.15
2023-05-17T10:17:26.734Z,81.35
2023-05-17T10:19:53.841Z,82.09
2023-05-17T10:22:23.722Z,82.67
2023-05-17T10:24:54.165Z,82.32
2023-05-17T10:27:21.694Z,82.49
2023-05-17T10:29:50.487Z,82.93
2023-05-17T10:32:17.484Z,83.60
2023-05-17T10:34:45.785Z,82.96
2023-05-17T10:37:14.130Z,82.88
2023-05-17T10:39:43.862Z,83.17
2023-05-17T10:42:14.731Z,83.43
2023-05-17T10:44:42.041Z,83.12
2023-05-17T10:47:09.035Z,82.51
2023-05-17T10:49:37.457Z,81.88
2023-05-17T10:52:13.898Z,81.31
2023-05-17T10:54:44.327Z,80.53
2023-05-17T10:57:22.725Z,81.64
2023-05-17T10:59:57.774Z,81.91
2023-05-17T11:02:24.574Z,81.69
2023-05-17T11:04:56.246Z,81.21
2023-05-17T11:07:27.997Z,80.95
2023-05-17T11:09:56.500Z,81.67
2023-05-17T11:12:42.559Z,82.00
2023-05-17T11:15:10.665Z,82.29
2023-05-17T11:17:43.419Z,81.95
2023-05-17T11:20:29.669Z,82.09
2023-05-17T11:23:07.123Z,82.55
2023-05-17T11:25:40.640Z,82.22
2023-05-17T11:28:19.471Z,82.87
2023-05-17T11:30:51.775Z,83.26
2023-05-17T11:33:32.471Z,83.28
2023-05-17T11:36:05.516Z,83.07
2023-05-17T11:38:33.147Z,83.17
2023-05-17T11:41:01.475Z,82.97
2023-05-17T11:43:31.107Z,83.18
2023-05-17T11:45:58.730Z,83.33
2023-05-17T11:48:26.677Z,84.07
2023-05-17T11:50:55.168Z,84.70
2023-05-17T11:53:22.157Z,85.51
2023-05-17T11:55:52.546Z,85.13
2023-05-17T11:58:26.179Z,83.28
2023-05-17T12:00:55.382Z,84.07
2023-05-17T12:03:22.980Z,84.84
2023-05-17T12:05:50.804Z,85.17
2023-05-17T12:08:18.567Z,85.52
2023-05-17T12:10:46.999Z,85.58
2023-05-17T12:13:13.796Z,85.45
2023-05-17T12:15:40.700Z,85.49
2023-05-17T12:18:07.615Z,85.37
2023-05-17T12:20:38.072Z,85.38
2023-05-17T12:23:04.857Z,85.24
2023-05-17T12:25:31.548Z,85.05
2023-05-17T12:28:18.791Z,85.27
2023-05-17T12:38:21.701Z,86.09
2023-05-17T12:40:48.624Z,86.36
2023-05-17T12:43:15.726Z,86.46
2023-05-17T12:45:42.625Z,85.66
2023-05-17T12:48:09.734Z,84.94
2023-05-17T12:50:36.622Z,84.29
2023-05-17T12:53:09.053Z,85.35
2023-05-17T12:55:39.080Z,86.07
2023-05-17T12:58:06.167Z,86.14
2023-05-17T13:00:33.241Z,85.83
2023-05-17T13:03:00.425Z,85.15
2023-05-17T13:05:27.358Z,85.21
2023-05-17T13:07:54.145Z,85.71
2023-05-17T13:10:26.406Z,85.93
2023-05-17T13:12:57.311Z,86.07
2023-05-17T13:15:30.616Z,85.70
2023-05-17T13:17:57.656Z,85.38
2023-05-17T13:20:24.755Z,85.60
2023-05-17T13:22:52.165Z,85.24
2023-05-17T13:25:19.459Z,84.69
2023-05-17T13:27:46.975Z,84.08
2023-05-17T13:30:14.075Z,83.79
2023-05-17T13:32:41.605Z,82.82
2023-05-17T13:35:08.735Z,83.00
2023-05-17T13:37:36.407Z,83.97
2023-05-17T13:40:04.076Z,84.55
2023-05-17T13:42:32.148Z,85.31
2023-05-17T13:44:59.183Z,84.71
2023-05-17T13:47:26.382Z,84.62
2023-05-17T13:49:53.287Z,84.95
2023-05-17T13:52:20.266Z,85.08
2023-05-17T13:54:47.285Z,84.98
2023-05-17T13:57:14.164Z,85.11
2023-05-17T13:59:41.634Z,85.48
2023-05-17T14:02:09.457Z,85.31
2023-05-17T14:04:36.586Z,85.33
2023-05-17T14:07:03.893Z,85.69
2023-05-17T14:09:34.551Z,85.84
2023-05-17T14:12:01.833Z,85.62
2023-05-17T14:14:29.193Z,85.49
2023-05-17T14:16:56.288Z,85.62
2023-05-17T14:19:23.199Z,85.62
2023-05-17T14:21:50.470Z,85.78
2023-05-17T14:24:17.329Z,85.40
2023-05-17T14:26:44.373Z,84.91
2023-05-17T14:29:11.414Z,84.50
2023-05-17T14:31:38.210Z,84.57
2023-05-17T14:34:05.249Z,85.02
2023-05-17T14:36:34.068Z,84.48
2023-05-17T14:39:01.192Z,86.19
2023-05-17T14:41:27.990Z,85.43
2023-05-17T14:43:54.737Z,85.03
2023-05-17T14:46:21.533Z,85.94
2023-05-17T14:48:48.528Z,85.35
2023-05-17T14:51:15.786Z,85.34
2023-05-17T14:53:43.213Z,85.55
2023-05-17T14:56:10.140Z,85.15
2023-05-17T14:58:36.975Z,84.66
2023-05-17T15:01:05.463Z,84.25
2023-05-17T15:03:34.300Z,84.77
2023-05-17T15:06:02.889Z,83.80
2023-05-17T15:08:32.272Z,83.86
2023-05-17T15:10:59.122Z,83.52
2023-05-17T15:13:26.567Z,84.09
2023-05-17T15:15:53.527Z,84.15
2023-05-17T15:18:20.797Z,83.51
2023-05-17T15:20:47.622Z,83.46
2023-05-17T15:23:14.520Z,83.16
2023-05-17T15:25:41.660Z,83.04
2023-05-17T15:28:08.501Z,83.26
2023-05-17T15:30:35.352Z,83.94
2023-05-17T15:33:02.820Z,83.02
2023-05-17T15:35:30.116Z,82.82
2023-05-17T15:37:58.829Z,82.68
2023-05-17T15:40:25.487Z,81.96
2023-05-17T15:42:52.682Z,82.13
2023-05-17T15:45:21.552Z,82.28
2023-05-17T15:47:49.597Z,82.61
2023-05-17T15:50:17.033Z,83.16
2023-05-17T15:52:43.988Z,83.35
2023-05-17T15:55:11.214Z,82.90
2023-05-17T15:57:38.017Z,82.93
2023-05-17T16:00:05.461Z,84.08
2023-05-17T16:02:32.262Z,83.41
2023-05-17T16:05:01.262Z,83.39
2023-05-17T16:07:30.348Z,82.09
2023-05-17T16:09:57.208Z,82.36
2023-05-17T16:12:24.081Z,82.30
2023-05-17T16:14:50.977Z,82.49
2023-05-17T16:17:17.818Z,82.48
2023-05-17T16:19:44.695Z,82.51
2023-05-17T16:22:11.815Z,82.77
2023-05-17T16:24:39.008Z,82.51
2023-05-17T16:27:07.991Z,82.81
2023-05-17T16:29:39.988Z,82.28
2023-05-17T16:32:08.195Z,82.30
2023-05-17T16:34:35.655Z,82.82
2023-05-17T16:37:04.195Z,83.65
2023-05-17T16:39:31.281Z,84.12
2023-05-17T16:41:58.207Z,84.46
2023-05-17T16:44:25.026Z,84.65
2023-05-17T16:46:52.054Z,84.75
2023-05-17T16:49:19.124Z,84.68
2023-05-17T16:51:46.115Z,84.92
2023-05-17T16:54:12.967Z,85.07
2023-05-17T16:56:39.807Z,85.24
2023-05-17T16:59:06.604Z,85.13
2023-05-17T17:01:33.517Z,85.11
2023-05-17T17:04:00.955Z,85.09
2023-05-17T17:06:27.849Z,85.37
2023-05-17T17:08:54.646Z,85.50
2023-05-17T17:11:22.185Z,85.60
2023-05-17T17:13:49.555Z,85.45
2023-05-17T17:16:16.484Z,85.21
2023-05-17T17:18:43.676Z,85.08
2023-05-17T17:21:10.599Z,85.00
2023-05-17T17:23:37.753Z,85.05
2023-05-17T17:26:04.832Z,85.21
2023-05-17T17:28:31.723Z,85.47
2023-05-17T17:30:58.629Z,85.48
2023-05-17T17:33:25.562Z,85.24
2023-05-17T17:35:52.532Z,85.15
2023-05-17T17:38:20.126Z,84.90
2023-05-17T17:40:47.174Z,84.80
2023-05-17T17:43:14.333Z,85.31
2023-05-17T17:45:41.720Z,85.38
2023-05-17T17:48:08.675Z,85.35
2023-05-17T17:50:36.153Z,84.68
2023-05-17T17:53:03.035Z,84.58
2023-05-17T17:55:29.850Z,84.65
2023-05-17T17:57:56.906Z,84.81
2023-05-17T18:00:24.443Z,85.20
2023-05-17T18:02:51.707Z,85.43
2023-05-17T18:05:18.990Z,85.41
2023-05-17T18:07:45.943Z,85.20
2023-05-17T18:10:12.849Z,84.70
2023-05-17T18:12:40.033Z,84.69
2023-05-17T18:15:07.753Z,84.90
2023-05-17T18:17:34.708Z,85.22
2023-05-17T18:20:01.607Z,85.30
2023-05-17T18:22:30.914Z,85.39
2023-05-17T18:24:57.768Z,85.53
2023-05-17T18:27:24.941Z,85.40
2023-05-17T18:29:51.927Z,85.51
2023-05-17T18:32:18.798Z,85.57
2023-05-17T18:34:45.976Z,85.48
2023-05-17T18:37:12.818Z,85.46
2023-05-17T18:39:39.716Z,85.53
2023-05-17T18:42:06.875Z,85.44
2023-05-17T18:44:35.410Z,85.38
2023-05-17T18:47:02.236Z,85.39
2023-05-17T18:49:29.473Z,84.95
2023-05-17T18:51:56.835Z,84.44
2023-05-17T18:54:23.746Z,84.54
2023-05-17T18:56:51.108Z,84.72
2023-05-17T18:59:17.938Z,84.78
2023-05-17T19:01:44.842Z,85.07
2023-05-17T19:04:11.823Z,84.99
2023-05-17T19:06:41.474Z,84.95
2023-05-17T19:09:08.688Z,85.04
2023-05-17T19:11:35.657Z,84.93
2023-05-17T19:14:02.712Z,84.81
2023-05-17T19:16:29.784Z,85.07
2023-05-17T19:18:56.628Z,85.50
2023-05-17T19:21:23.591Z,85.42
2023-05-17T19:23:50.635Z,85.49
2023-05-17T19:26:17.472Z,85.70
2023-05-17T19:28:44.257Z,85.67
2023-05-17T19:31:12.219Z,85.87
2023-05-17T19:33:39.138Z,85.94
2023-05-17T19:36:06.169Z,85.84
2023-05-17T19:38:33.723Z,85.52
2023-05-17T19:41:01.506Z,85.46
2023-05-17T19:43:28.444Z,85.48
2023-05-17T19:45:55.292Z,85.37
2023-05-17T19:48:24.185Z,85.41
2023-05-17T19:50:51.586Z,85.52
2023-05-17T19:53:18.498Z,85.41
2023-05-17T19:55:45.517Z,85.34
2023-05-17T19:58:12.263Z,85.33
2023-05-17T20:00:39.122Z,84.95
2023-05-17T20:03:06.065Z,84.70
2023-05-17T20:05:33.011Z,84.95
2023-05-17T20:08:02.784Z,85.05
2023-05-17T20:10:32.917Z,85.62
2023-05-17T20:13:00.395Z,85.76
2023-05-17T20:15:27.195Z,85.83
2023-05-17T20:17:54.030Z,85.89
2023-05-17T20:20:20.923Z,85.78
2023-05-17T20:22:48.201Z,85.54
2023-05-17T20:25:15.117Z,85.51
2023-05-17T20:27:41.898Z,85.37
2023-05-17T20:30:09.372Z,85.24
2023-05-17T20:32:36.291Z,85.16
2023-05-17T20:35:03.105Z,85.23
2023-05-17T20:37:29.909Z,85.22
2023-05-17T20:40:00.292Z,85.20
2023-05-17T20:42:28.394Z,85.00
2023-05-17T20:44:55.649Z,85.06
2023-05-17T20:47:22.671Z,84.88
2023-05-17T20:49:50.441Z,84.83
2023-05-17T20:52:31.387Z,84.71
2023-05-17T20:55:06.198Z,84.80
2023-05-17T20:57:33.054Z,84.61
2023-05-17T20:59:59.908Z,84.51
2023-05-17T21:02:27.486Z,84.55
2023-05-17T21:04:54.973Z,84.50
2023-05-17T21:07:22.689Z,84.52
2023-05-17T21:09:49.567Z,84.61
2023-05-17T21:12:16.431Z,84.68
2023-05-17T21:14:43.241Z,84.51
2023-05-17T21:17:10.511Z,84.60
2023-05-17T21:19:37.467Z,84.84
2023-05-17T21:22:05.124Z,84.99
2023-05-17T21:24:32.083Z,85.18
2023-05-17T21:26:59.248Z,85.21
2023-05-17T21:29:26.056Z,85.38
2023-05-17T21:31:53.271Z,85.37
2023-05-17T21:34:20.159Z,85.23
2023-05-17T21:36:47.052Z,85.22
2023-05-17T21:39:13.905Z,84.87
2023-05-17T21:41:41.460Z,84.92
2023-05-17T21:44:08.356Z,85.11
2023-05-17T21:46:35.218Z,85.27
2023-05-17T21:49:02.345Z,85.31
2023-05-17T21:51:29.235Z,85.25
2023-05-17T21:53:56.300Z,85.35
2023-05-17T21:56:23.239Z,85.33
2023-05-17T21:58:50.150Z,85.56
2023-05-17T22:01:20.205Z,85.76
2023-05-17T22:03:47.724Z,85.79
2023-05-17T22:06:14.622Z,85.44
2023-05-17T22:08:42.776Z,85.23
2023-05-17T22:11:11.060Z,84.80
2023-05-17T22:13:38.278Z,85.00
2023-05-17T22:16:06.350Z,85.24
2023-05-17T22:18:33.436Z,85.33
2023-05-17T22:21:00.222Z,85.38
2023-05-17T22:23:27.517Z,85.29
2023-05-17T22:25:57.389Z,85.23
2023-05-17T22:28:24.445Z,85.32
2023-05-17T22:30:51.529Z,85.16
2023-05-17T22:33:18.700Z,85.21
2023-05-17T22:35:46.772Z,85.18
2023-05-17T22:38:16.064Z,85.13
2023-05-17T22:40:43.716Z,84.86
2023-05-17T22:43:10.878Z,84.55
2023-05-17T22:45:38.544Z,84.78
2023-05-17T22:48:06.118Z,84.85
2023-05-17T22:50:33.403Z,84.70
2023-05-17T22:53:01.380Z,84.70
2023-05-17T22:55:28.665Z,84.58
2023-05-17T22:57:56.130Z,84.08
2023-05-17T23:00:23.682Z,83.77
2023-05-17T23:02:50.825Z,83.96
2023-05-17T23:05:18.454Z,84.25
2023-05-17T23:07:47.598Z,84.46
2023-05-17T23:10:15.773Z,84.43
2023-05-17T23:12:42.878Z,84.32
2023-05-17T23:15:10.684Z,84.42
2023-05-17T23:17:39.187Z,84.61
2023-05-17T23:20:10.482Z,84.50
2023-05-17T23:22:37.681Z,84.64
2023-05-17T23:25:06.140Z,84.59
2023-05-17T23:27:33.609Z,84.42
2023-05-17T23:30:01.238Z,84.55
2023-05-17T23:32:28.408Z,84.59
2023-05-17T23:34:58.650Z,84.69
2023-05-17T23:37:25.696Z,84.60
2023-05-17T23:39:52.751Z,84.37
2023-05-17T23:42:20.492Z,84.17
2023-05-17T23:44:48.944Z,83.90
2023-05-17T23:47:16.079Z,84.29
2023-05-17T23:49:43.177Z,84.74
2023-05-17T23:52:11.361Z,84.57
2023-05-17T23:54:41.645Z,84.45
2023-05-17T23:57:08.965Z,84.63
2023-05-17T23:59:36.762Z,84.52
